Aeroporto :
LOGIN :

Iscrizione | Disclaimer

   EN    FR    IT 

 










Sommario :    VFR   VFR Marginale   IFR   IFR Intensivo   IFR Molto Intensivo
Visibilità : 
Base nubi : 
>= 8 km
>= 3000ft
5 / 8 km
1000 / 3000 ft
1500m / 5 km
500 / 1000 ft
800 / 1500m
200 / 500 ft
< 800m
< 200 ft
Simboli :   Temporali  Nebbia  Neve Forte  Precipitazioni Forti  Vento > 20 kt
SIGMETs :   Varie  Temporali  Ghiacco  Turbolenza  Onda orograficha  Ceneri Vulcaniche






- Altitudine del aeroporto : 74 ft
- Codice IATA : MRS


LFML - Marseille / Marignane

ULTIMO METAR :
  • 201130Z AUTO 18004KT 9999 OVC028 11/07 Q1012 NOSIG

METARs OBSOLETI :
  • 201100Z AUTO 15002KT 9999 BKN026 OVC033 10/07 Q1012 NOSIG
  • 201030Z AUTO VRB02KT 9999 BKN029 OVC035 10/08 Q1013 NOSIG
  • 201000Z AUTO 31004KT 9999 BKN032 OVC078 10/07 Q1013 NOSIG
  • 200930Z AUTO 25005KT 9999 FEW029 BKN036 OVC076 10/08 Q1013 NOSIG
  • 200900Z AUTO 24004KT 9999 BKN040 BKN047 10/07 Q1013 NOSIG

TAF TAF LFML
Valido dal 20 a 09 ore il 21 a 15 ore UTC


200800Z 2009/2115 10006KT 9999 BKN036 TX13/2014Z TN08/2021Z
BECMG 2009/2011 24005KT BKN025
PROB40
TEMPO 2011/2013 -RADZ
BECMG 2013/2014 VRB03KT SCT036
TEMPO 2014/2024 10007KT BKN035
BECMG 2100/2102 09010KT
TEMPO 2105/2109 -RA BKN030
BECMG 2109/2111 13013KT
TEMPO 2112/2115 4000 RA BR BKN020TCU
PROB30
TEMPO 2112/2115 2000 TSRA SCT010 SCT016CB BKN020TCU
ATIS : +33 4 42 31 15 15



MetMap, La meteo Aeronautica in un colpo d'occhio ! - Copyright ORBIFLY Dicembre 2007 - Disclaimer

ORBIFLY MET'MAP TEAM :

Programmazione e sviluppo : Alexandra Zaïnal
Concezione e sviluppo : Baudouin d'Aumeries
Co-Programmazione e sviluppo : Marc-Olivier Méhu
Supporto tecnico e logistico : Manuel Goepfert
Aiuto per la traduzione : Arnaldo La Scala

Contatto : metmap@orbifly.com




FONTI E CREDITI :

   NOAA